createdAt,value
2023-11-06T00:00:01.300Z,531.42
2023-11-06T00:00:34.534Z,528.50
2023-11-06T00:01:06.977Z,530.85
2023-11-06T00:01:39.376Z,528.55
2023-11-06T00:02:11.700Z,528.33
2023-11-06T00:02:44.640Z,527.75
2023-11-06T00:03:17.218Z,529.67
2023-11-06T00:03:49.612Z,530.83
2023-11-06T00:04:22.038Z,529.72
2023-11-06T00:04:59.399Z,528.35
2023-11-06T00:05:32.142Z,530.22
2023-11-06T00:06:05.136Z,531.20
2023-11-06T00:06:38.117Z,532.00
2023-11-06T00:07:10.424Z,531.00
2023-11-06T00:07:42.768Z,528.90
2023-11-06T00:08:16.205Z,531.90
2023-11-06T00:08:48.846Z,527.72
2023-11-06T00:09:21.380Z,532.45
2023-11-06T00:09:53.666Z,532.78
2023-11-06T00:10:25.976Z,530.33
2023-11-06T00:10:58.384Z,530.53
2023-11-06T00:11:30.836Z,531.22
2023-11-06T00:12:04.224Z,533.50
2023-11-06T00:12:40.371Z,531.92
2023-11-06T00:13:13.072Z,532.85
2023-11-06T00:13:45.449Z,533.85
2023-11-06T00:14:17.923Z,532.72
2023-11-06T00:14:50.497Z,534.13
2023-11-06T00:15:22.809Z,533.72
2023-11-06T00:15:55.113Z,531.42
2023-11-06T00:16:29.463Z,533.15
2023-11-06T00:17:02.162Z,532.55
2023-11-06T00:17:34.868Z,532.72
2023-11-06T00:18:07.300Z,529.60
2023-11-06T00:18:39.919Z,532.80
2023-11-06T00:19:13.483Z,531.28
2023-11-06T00:19:45.841Z,529.95
2023-11-06T00:20:18.405Z,533.78
2023-11-06T00:20:50.906Z,532.92
2023-11-06T00:21:27.819Z,531.38
2023-11-06T00:22:01.266Z,531.47
2023-11-06T00:22:34.412Z,530.92
2023-11-06T00:23:07.067Z,531.67
2023-11-06T00:23:39.639Z,529.33
2023-11-06T00:24:12.037Z,529.50
2023-11-06T00:24:44.464Z,531.50
2023-11-06T00:25:19.409Z,530.08
2023-11-06T00:25:51.884Z,532.08
2023-11-06T00:26:24.247Z,531.08
2023-11-06T00:27:00.582Z,528.35
2023-11-06T00:27:33.624Z,525.13
2023-11-06T00:28:05.913Z,528.60
2023-11-06T00:28:38.391Z,525.88
2023-11-06T00:29:10.802Z,525.80
2023-11-06T00:29:43.628Z,528.17
2023-11-06T00:30:16.126Z,524.75
2023-11-06T00:30:48.937Z,526.83
2023-11-06T00:31:22.618Z,528.65
2023-11-06T00:31:55.323Z,526.15
2023-11-06T00:32:28.118Z,526.20
2023-11-06T00:33:00.591Z,529.17
2023-11-06T00:33:33.252Z,527.42
2023-11-06T00:34:05.827Z,527.53
2023-11-06T00:34:38.155Z,526.17
2023-11-06T00:35:15.033Z,527.33
2023-11-06T00:35:47.788Z,528.00
2023-11-06T00:36:20.429Z,525.92
2023-11-06T00:36:52.797Z,528.22
2023-11-06T00:37:25.359Z,530.05
2023-11-06T00:37:57.699Z,527.58
2023-11-06T00:38:30.124Z,528.28
2023-11-06T00:39:02.458Z,529.17
2023-11-06T00:39:37.442Z,528.80
2023-11-06T00:40:09.927Z,528.15
2023-11-06T00:40:42.426Z,527.67
2023-11-06T00:41:15.647Z,529.05
2023-11-06T00:41:47.980Z,529.42
2023-11-06T00:42:20.299Z,531.50
2023-11-06T00:42:52.687Z,529.95
2023-11-06T00:43:25.031Z,526.00
2023-11-06T00:43:57.435Z,527.40
2023-11-06T00:44:29.746Z,528.33
2023-11-06T00:45:03.872Z,529.67
2023-11-06T00:45:36.362Z,529.83
2023-11-06T00:46:08.787Z,528.10
2023-11-06T00:46:41.154Z,526.30
2023-11-06T00:47:13.552Z,527.40
2023-11-06T00:47:46.278Z,528.53
2023-11-06T00:48:18.808Z,526.78
2023-11-06T00:48:51.332Z,524.72
2023-11-06T00:49:23.922Z,526.53
2023-11-06T00:49:56.238Z,526.13
2023-11-06T00:50:28.616Z,527.33
2023-11-06T00:51:01.121Z,528.22
2023-11-06T00:51:33.423Z,527.85
2023-11-06T00:52:05.883Z,526.03
2023-11-06T00:52:38.170Z,527.90
2023-11-06T00:53:10.533Z,529.70
2023-11-06T00:53:42.899Z,529.15
2023-11-06T00:54:17.997Z,528.53
2023-11-06T00:54:50.563Z,527.97
2023-11-06T00:55:23.230Z,529.28
2023-11-06T00:55:55.641Z,529.33
2023-11-06T00:56:27.995Z,524.70
2023-11-06T00:57:01.501Z,528.75
2023-11-06T00:57:33.887Z,528.33
2023-11-06T00:58:06.254Z,525.97
2023-11-06T00:58:38.678Z,522.67
2023-11-06T00:59:11.169Z,523.50
2023-11-06T00:59:44.459Z,526.20
2023-11-06T01:00:17.691Z,529.25
2023-11-06T01:00:50.573Z,526.78
2023-11-06T01:01:22.964Z,527.17
2023-11-06T01:01:56.560Z,528.05
2023-11-06T01:02:30.369Z,528.08
2023-11-06T01:03:02.964Z,526.28
2023-11-06T01:03:35.332Z,527.53
2023-11-06T01:04:11.057Z,529.33
2023-11-06T01:04:44.163Z,528.47
2023-11-06T01:05:17.408Z,526.85
2023-11-06T01:05:49.798Z,526.90
2023-11-06T01:06:22.138Z,525.13
2023-11-06T01:06:54.922Z,525.88
2023-11-06T01:07:27.252Z,524.83
2023-11-06T01:07:59.558Z,525.40
2023-11-06T01:08:31.898Z,526.33
2023-11-06T01:09:04.297Z,530.05
2023-11-06T01:09:37.274Z,528.95
2023-11-06T01:10:10.115Z,529.33
2023-11-06T01:10:42.403Z,526.67
2023-11-06T01:11:15.515Z,526.05
2023-11-06T01:11:50.591Z,528.08
2023-11-06T01:12:23.575Z,527.88
2023-11-06T01:12:56.004Z,525.50
2023-11-06T01:13:28.286Z,525.92
2023-11-06T01:14:00.772Z,526.00
2023-11-06T01:14:33.107Z,529.58
2023-11-06T01:15:05.630Z,527.72
2023-11-06T01:15:38.862Z,527.47
2023-11-06T01:16:11.150Z,524.17
2023-11-06T01:16:44.012Z,529.47
2023-11-06T01:17:16.570Z,527.13
2023-11-06T01:17:49.118Z,528.30
2023-11-06T01:18:54.510Z,527.50
2023-11-06T01:19:26.861Z,524.10
2023-11-06T01:19:59.212Z,527.85
2023-11-06T01:20:31.610Z,527.70
2023-11-06T01:21:04.044Z,526.08
2023-11-06T01:21:36.388Z,523.28
2023-11-06T01:22:08.736Z,524.58
2023-11-06T01:22:41.980Z,523.08
2023-11-06T01:23:14.676Z,525.30
2023-11-06T01:23:46.987Z,526.20
2023-11-06T01:24:19.641Z,524.58
2023-11-06T01:24:52.124Z,526.33
2023-11-06T01:25:24.595Z,526.05
2023-11-06T01:25:57.539Z,527.67
2023-11-06T01:26:29.869Z,528.78
2023-11-06T01:27:02.235Z,526.90
2023-11-06T01:27:34.582Z,526.83
2023-11-06T01:28:07.743Z,527.35
2023-11-06T01:28:40.086Z,526.22
2023-11-06T01:29:12.934Z,524.38
2023-11-06T01:29:45.455Z,525.80
2023-11-06T01:30:19.525Z,526.03
2023-11-06T01:30:51.870Z,526.80
2023-11-06T01:31:24.262Z,530.03
2023-11-06T01:31:56.602Z,526.55
2023-11-06T01:32:29.584Z,526.83
2023-11-06T01:33:02.344Z,526.60
2023-11-06T01:33:34.919Z,525.47
2023-11-06T01:34:07.741Z,528.17
2023-11-06T01:34:40.108Z,525.10
2023-11-06T01:35:13.593Z,526.22
2023-11-06T01:35:45.943Z,526.70
2023-11-06T01:36:18.575Z,525.63
2023-11-06T01:36:51.024Z,527.83
2023-11-06T01:37:23.417Z,525.40
2023-11-06T01:37:55.795Z,525.03
2023-11-06T01:38:28.199Z,527.53
2023-11-06T01:39:00.586Z,524.03
2023-11-06T01:39:32.987Z,525.05
2023-11-06T01:40:07.709Z,524.47
2023-11-06T01:40:40.224Z,526.17
2023-11-06T01:41:12.703Z,522.05
2023-11-06T01:41:46.450Z,524.03
2023-11-06T01:42:18.791Z,528.42
2023-11-06T01:42:53.728Z,526.95
2023-11-06T01:43:26.175Z,525.30
2023-11-06T01:43:58.508Z,527.65
2023-11-06T01:44:31.046Z,524.55
2023-11-06T01:45:03.929Z,525.58
2023-11-06T01:45:37.036Z,525.17
2023-11-06T01:46:12.492Z,525.83
2023-11-06T01:46:44.923Z,524.00
2023-11-06T01:47:17.644Z,526.70
2023-11-06T01:47:52.235Z,528.92
2023-11-06T01:48:27.024Z,528.05
2023-11-06T01:49:01.379Z,523.97
2023-11-06T01:49:33.946Z,524.97
2023-11-06T01:50:09.176Z,521.80
2023-11-06T01:50:42.612Z,525.50
2023-11-06T01:51:15.015Z,525.95
2023-11-06T01:51:47.736Z,521.85
2023-11-06T01:52:21.683Z,524.95
2023-11-06T01:52:54.157Z,524.85
2023-11-06T01:53:27.459Z,527.88
2023-11-06T01:54:00.878Z,523.70
2023-11-06T01:54:33.318Z,524.17
2023-11-06T01:55:05.952Z,523.28
2023-11-06T01:55:40.257Z,522.35
2023-11-06T01:56:13.083Z,523.28
2023-11-06T01:56:45.608Z,522.55
2023-11-06T01:57:19.087Z,525.88
2023-11-06T01:57:51.434Z,524.75
2023-11-06T01:58:23.816Z,521.55
2023-11-06T01:58:56.260Z,524.30
2023-11-06T01:59:28.609Z,521.67
2023-11-06T02:00:01.181Z,522.88
2023-11-06T02:00:33.709Z,522.53
2023-11-06T02:01:06.601Z,523.45
2023-11-06T02:01:41.471Z,523.15
2023-11-06T02:02:16.299Z,522.22
2023-11-06T02:02:49.184Z,522.42
2023-11-06T02:03:22.734Z,523.05
2023-11-06T02:03:55.711Z,525.08
2023-11-06T02:04:29.433Z,528.22
2023-11-06T02:05:02.045Z,525.88
2023-11-06T02:05:35.261Z,523.40
2023-11-06T02:06:08.170Z,524.53
2023-11-06T02:06:41.405Z,523.63
2023-11-06T02:07:13.911Z,524.70
2023-11-06T02:07:47.182Z,526.50
2023-11-06T02:08:19.910Z,526.55
2023-11-06T02:08:52.253Z,521.83
2023-11-06T02:09:26.979Z,522.45
2023-11-06T02:09:59.509Z,523.67
2023-11-06T02:10:32.710Z,524.13
2023-11-06T02:11:05.692Z,522.22
2023-11-06T02:11:38.177Z,524.90
2023-11-06T02:12:11.770Z,524.85
2023-11-06T02:12:45.977Z,522.65
2023-11-06T02:13:19.026Z,522.72
2023-11-06T02:13:51.352Z,523.58
2023-11-06T02:14:23.728Z,521.65
2023-11-06T02:14:56.528Z,521.78
2023-11-06T02:15:29.507Z,525.20
2023-11-06T02:16:01.872Z,523.50
2023-11-06T02:16:34.232Z,521.90
2023-11-06T02:17:06.585Z,524.92
2023-11-06T02:17:38.974Z,523.03
2023-11-06T02:18:11.576Z,524.08
2023-11-06T02:18:44.398Z,521.72
2023-11-06T02:19:16.767Z,522.75
2023-11-06T02:19:50.170Z,524.35
2023-11-06T02:20:23.320Z,523.90
2023-11-06T02:20:56.968Z,526.20
2023-11-06T02:21:29.645Z,523.90
2023-11-06T02:22:02.164Z,523.55
2023-11-06T02:22:34.752Z,522.92
2023-11-06T02:23:10.179Z,529.00
2023-11-06T02:23:42.933Z,525.22
2023-11-06T02:24:15.274Z,522.80
2023-11-06T02:24:49.215Z,524.97
2023-11-06T02:25:23.498Z,525.25
2023-11-06T02:25:55.943Z,524.13
2023-11-06T02:26:28.280Z,526.08
2023-11-06T02:27:00.569Z,526.97
2023-11-06T02:27:32.849Z,523.70
2023-11-06T02:28:05.301Z,524.28
2023-11-06T02:28:38.142Z,523.97
2023-11-06T02:29:10.479Z,524.35
2023-11-06T02:29:43.320Z,523.35
2023-11-06T02:30:15.625Z,522.75
2023-11-06T02:30:53.295Z,522.40
2023-11-06T02:31:25.712Z,524.75
2023-11-06T02:31:58.798Z,527.70
2023-11-06T02:32:33.169Z,525.47
2023-11-06T02:33:05.829Z,523.78
2023-11-06T02:33:38.143Z,522.90
2023-11-06T02:34:10.546Z,522.60
2023-11-06T02:34:43.306Z,523.83
2023-11-06T02:35:15.797Z,523.90
2023-11-06T02:35:49.057Z,524.38
2023-11-06T02:36:21.364Z,524.83
2023-11-06T02:36:55.170Z,523.00
2023-11-06T02:37:27.543Z,525.33
2023-11-06T02:37:59.850Z,526.72
2023-11-06T02:38:32.287Z,523.42
2023-11-06T02:39:04.787Z,523.75
2023-11-06T02:39:37.931Z,525.13
2023-11-06T02:40:14.044Z,523.38
2023-11-06T02:40:46.718Z,523.85
2023-11-06T02:41:20.572Z,523.85
2023-11-06T02:41:53.056Z,520.90
2023-11-06T02:42:25.383Z,524.53
2023-11-06T02:42:57.709Z,522.28
2023-11-06T02:43:30.048Z,523.40
2023-11-06T02:44:02.655Z,518.92
2023-11-06T02:44:34.981Z,520.60
2023-11-06T02:45:08.621Z,520.97
2023-11-06T02:45:41.159Z,522.22
2023-11-06T02:46:13.872Z,518.92
2023-11-06T02:46:46.342Z,522.53
2023-11-06T02:47:18.761Z,520.53
2023-11-06T02:47:51.139Z,522.45
2023-11-06T02:48:23.741Z,523.00
2023-11-06T02:48:56.140Z,522.03
2023-11-06T02:49:28.590Z,522.03
2023-11-06T02:50:00.910Z,521.47
2023-11-06T02:50:33.359Z,521.10
2023-11-06T02:51:05.775Z,522.88
2023-11-06T02:51:38.392Z,519.97
2023-11-06T02:52:10.754Z,522.90
2023-11-06T02:52:43.887Z,522.08
2023-11-06T02:53:16.594Z,520.22
2023-11-06T02:53:49.025Z,523.83
2023-11-06T02:54:23.951Z,521.13
2023-11-06T02:54:56.291Z,521.20
2023-11-06T02:55:28.605Z,522.13
2023-11-06T02:56:01.733Z,521.13
2023-11-06T02:56:36.988Z,522.03
2023-11-06T02:57:09.427Z,521.47
2023-11-06T02:57:41.953Z,521.75
2023-11-06T02:58:14.682Z,522.15
2023-11-06T02:58:47.226Z,524.85
2023-11-06T02:59:19.964Z,522.95
2023-11-06T02:59:52.315Z,525.40
2023-11-06T03:00:24.779Z,524.22
2023-11-06T03:00:57.193Z,522.97
2023-11-06T03:01:29.483Z,521.85
2023-11-06T03:02:03.323Z,523.65
2023-11-06T03:02:35.996Z,524.00
2023-11-06T03:03:08.708Z,523.13
2023-11-06T03:03:41.396Z,526.70
2023-11-06T03:04:13.786Z,521.95
2023-11-06T03:04:46.245Z,526.10
2023-11-06T03:05:20.202Z,523.97
2023-11-06T03:05:52.898Z,524.05
2023-11-06T03:06:28.926Z,523.30
2023-11-06T03:07:01.404Z,525.17
2023-11-06T03:07:34.310Z,526.22
2023-11-06T03:08:06.790Z,522.60
2023-11-06T03:08:39.219Z,525.35
2023-11-06T03:09:13.386Z,524.03
2023-11-06T03:09:47.548Z,526.25
2023-11-06T03:10:20.153Z,527.75
2023-11-06T03:10:52.809Z,527.58
2023-11-06T03:11:25.728Z,524.17
2023-11-06T03:11:58.051Z,524.85
2023-11-06T03:12:30.501Z,525.58
2023-11-06T03:13:02.863Z,524.53
2023-11-06T03:13:35.187Z,524.08
2023-11-06T03:14:07.638Z,524.83
2023-11-06T03:14:40.042Z,524.10
2023-11-06T03:15:12.649Z,524.45
2023-11-06T03:15:45.482Z,526.00
2023-11-06T03:16:18.595Z,525.15
2023-11-06T03:16:50.966Z,523.92
2023-11-06T03:17:23.766Z,525.83
2023-11-06T03:17:56.148Z,524.55
2023-11-06T03:18:28.678Z,526.00
2023-11-06T03:19:01.215Z,523.55
2023-11-06T03:19:34.896Z,526.80
2023-11-06T03:20:12.349Z,525.15
2023-11-06T03:20:44.954Z,526.47
2023-11-06T03:21:17.354Z,528.40
2023-11-06T03:21:52.906Z,527.85
2023-11-06T03:22:25.233Z,530.83
2023-11-06T03:22:57.645Z,525.65
2023-11-06T03:23:30.040Z,526.80
2023-11-06T03:24:02.438Z,526.15
2023-11-06T03:24:35.253Z,523.47
2023-11-06T03:25:10.796Z,526.53
2023-11-06T03:25:43.223Z,527.85
2023-11-06T03:26:16.010Z,526.80
2023-11-06T03:26:48.338Z,525.67
2023-11-06T03:27:22.246Z,527.10
2023-11-06T03:27:54.536Z,524.55
2023-11-06T03:28:26.839Z,526.35
2023-11-06T03:28:59.345Z,525.00
2023-11-06T03:29:32.050Z,524.03
2023-11-06T03:30:05.635Z,521.33
2023-11-06T03:30:38.849Z,521.17
2023-11-06T03:31:11.485Z,526.47
2023-11-06T03:31:43.966Z,525.80
2023-11-06T03:32:16.369Z,528.47
2023-11-06T03:32:48.895Z,527.22
2023-11-06T03:33:21.341Z,524.92
2023-11-06T03:33:54.217Z,526.30
2023-11-06T03:34:26.997Z,526.30
2023-11-06T03:34:59.375Z,528.38
2023-11-06T03:35:32.047Z,525.03
2023-11-06T03:36:04.989Z,525.97
2023-11-06T03:36:43.673Z,526.13
2023-11-06T03:37:16.108Z,524.80
2023-11-06T03:37:48.683Z,524.55
2023-11-06T03:38:21.617Z,515.47
2023-11-06T03:38:53.927Z,513.25
2023-11-06T03:39:26.270Z,513.97
2023-11-06T03:39:58.931Z,511.55
2023-11-06T03:40:31.343Z,518.33
2023-11-06T03:41:05.023Z,520.03
2023-11-06T03:41:37.979Z,521.72
2023-11-06T03:42:10.761Z,522.78
2023-11-06T03:42:43.039Z,521.20
2023-11-06T03:43:15.365Z,523.45
2023-11-06T03:43:53.347Z,521.42
2023-11-06T03:45:00.488Z,523.08
2023-11-06T03:45:32.816Z,522.03
2023-11-06T03:46:05.271Z,522.42
2023-11-06T03:46:39.322Z,521.78
2023-11-06T03:47:11.847Z,522.90
2023-11-06T03:47:44.173Z,521.47
2023-11-06T03:48:16.779Z,522.15
2023-11-06T03:48:49.228Z,524.38
2023-11-06T03:49:22.570Z,523.72
2023-11-06T03:49:55.431Z,521.00
2023-11-06T03:50:27.949Z,520.90
2023-11-06T03:51:00.877Z,519.22
2023-11-06T03:51:33.238Z,521.88
2023-11-06T03:52:07.190Z,521.38
2023-11-06T03:52:39.564Z,523.50
2023-11-06T03:53:11.976Z,521.42
2023-11-06T03:53:44.394Z,523.33
2023-11-06T03:54:16.694Z,525.30
2023-11-06T03:54:49.162Z,523.30
2023-11-06T03:55:21.487Z,521.10
2023-11-06T03:55:53.739Z,522.45
2023-11-06T03:56:26.042Z,520.75
2023-11-06T03:56:58.366Z,521.15
2023-11-06T03:57:30.821Z,519.65
2023-11-06T03:58:03.607Z,521.28
2023-11-06T03:58:35.934Z,521.65
2023-11-06T03:59:08.275Z,521.70
2023-11-06T03:59:41.303Z,524.33
2023-11-06T04:00:13.954Z,523.63
2023-11-06T04:00:47.705Z,522.25
2023-11-06T04:01:20.093Z,520.67
2023-11-06T04:01:52.602Z,522.55
2023-11-06T04:02:25.371Z,521.83
2023-11-06T04:02:58.202Z,520.40
2023-11-06T04:03:30.891Z,521.15
2023-11-06T04:04:04.079Z,522.20
2023-11-06T04:04:36.533Z,519.90
2023-11-06T04:05:09.583Z,523.40
2023-11-06T04:05:42.110Z,522.83
2023-11-06T04:06:14.656Z,522.03
2023-11-06T04:06:47.226Z,523.08
2023-11-06T04:07:19.641Z,523.25
2023-11-06T04:07:52.245Z,523.03
2023-11-06T04:08:24.592Z,522.40
2023-11-06T04:08:57.480Z,521.63
2023-11-06T04:09:29.991Z,520.92
2023-11-06T04:10:02.314Z,522.42
2023-11-06T04:10:34.824Z,522.67
2023-11-06T04:11:07.234Z,520.08
2023-11-06T04:11:39.603Z,518.50
2023-11-06T04:12:11.904Z,520.78
2023-11-06T04:12:44.421Z,520.70
2023-11-06T04:13:16.755Z,521.80
2023-11-06T04:13:49.359Z,518.70
2023-11-06T04:14:21.777Z,520.05
2023-11-06T04:14:55.255Z,519.70
2023-11-06T04:15:27.533Z,521.80
2023-11-06T04:16:00.554Z,520.33
2023-11-06T04:16:33.214Z,519.10
2023-11-06T04:17:05.656Z,518.35
2023-11-06T04:17:41.294Z,520.22
2023-11-06T04:18:13.881Z,521.22
2023-11-06T04:18:46.232Z,520.38
2023-11-06T04:19:18.551Z,520.00
2023-11-06T04:19:51.351Z,520.55
2023-11-06T04:20:23.735Z,522.17
2023-11-06T04:20:56.096Z,522.75
2023-11-06T04:21:28.475Z,523.67
2023-11-06T04:22:00.769Z,523.72
2023-11-06T04:22:33.147Z,519.92
2023-11-06T04:23:05.711Z,520.97
2023-11-06T04:23:38.067Z,519.60
2023-11-06T04:24:11.472Z,524.40
2023-11-06T04:24:43.783Z,518.97
2023-11-06T04:25:16.324Z,520.42
2023-11-06T04:25:50.155Z,519.80
2023-11-06T04:26:22.586Z,524.22
2023-11-06T04:26:54.905Z,523.30
2023-11-06T04:27:27.206Z,523.40
2023-11-06T04:27:59.511Z,519.25
2023-11-06T04:28:32.720Z,523.20
2023-11-06T04:29:05.021Z,525.78
2023-11-06T04:29:37.558Z,523.50
2023-11-06T04:30:10.282Z,521.85
2023-11-06T04:30:43.972Z,521.15
2023-11-06T04:31:16.662Z,522.92
2023-11-06T04:31:48.966Z,521.20
2023-11-06T04:32:22.025Z,522.58
2023-11-06T04:32:54.418Z,523.78
2023-11-06T04:33:26.769Z,521.13
2023-11-06T04:33:59.279Z,521.88
2023-11-06T04:34:31.597Z,520.42
2023-11-06T04:35:04.428Z,522.22
2023-11-06T04:35:36.953Z,519.45
2023-11-06T04:36:10.711Z,521.20
2023-11-06T04:36:43.071Z,522.60
2023-11-06T04:37:15.438Z,524.10
2023-11-06T04:37:47.981Z,522.30
2023-11-06T04:38:20.437Z,519.45
2023-11-06T04:38:54.115Z,519.63
2023-11-06T04:39:26.505Z,519.15
2023-11-06T04:39:59.145Z,519.65
2023-11-06T04:40:31.772Z,520.95
2023-11-06T04:41:04.195Z,519.25
2023-11-06T04:41:36.515Z,520.42
2023-11-06T04:42:11.239Z,520.88
2023-11-06T04:42:43.736Z,521.50
2023-11-06T04:43:16.106Z,523.08
2023-11-06T04:43:48.825Z,524.25
2023-11-06T04:44:21.898Z,520.38
2023-11-06T04:44:54.286Z,522.85
2023-11-06T04:45:26.589Z,521.35
2023-11-06T04:45:58.897Z,521.53
2023-11-06T04:46:31.197Z,520.90
2023-11-06T04:47:03.655Z,520.38
2023-11-06T04:47:36.501Z,520.08
2023-11-06T04:48:08.913Z,522.40
2023-11-06T04:48:41.641Z,523.90
2023-11-06T04:49:14.098Z,522.35
2023-11-06T04:49:46.496Z,521.60
2023-11-06T04:50:19.567Z,525.25
2023-11-06T04:50:51.909Z,521.30
2023-11-06T04:51:24.193Z,521.17
2023-11-06T04:51:56.671Z,520.15
2023-11-06T04:52:29.638Z,520.20
2023-11-06T04:53:01.939Z,519.63
2023-11-06T04:53:35.009Z,523.28
2023-11-06T04:54:07.322Z,521.65
2023-11-06T04:54:42.380Z,521.10
2023-11-06T04:55:15.205Z,520.80
2023-11-06T04:55:49.138Z,523.13
2023-11-06T04:56:21.858Z,522.83
2023-11-06T04:56:54.489Z,522.85
2023-11-06T04:57:26.913Z,520.70
2023-11-06T04:57:59.290Z,517.85
2023-11-06T04:58:31.774Z,523.28
2023-11-06T04:59:05.489Z,520.72
2023-11-06T04:59:38.728Z,522.53
2023-11-06T05:00:11.950Z,522.92
2023-11-06T05:00:45.421Z,521.05
2023-11-06T05:01:18.198Z,523.00
2023-11-06T05:01:50.499Z,522.38
2023-11-06T05:02:22.846Z,521.97
2023-11-06T05:02:55.220Z,519.17
2023-11-06T05:03:27.745Z,521.25
2023-11-06T05:04:00.178Z,520.35
2023-11-06T05:04:32.783Z,521.85
2023-11-06T05:05:08.751Z,523.00
2023-11-06T05:05:42.238Z,523.28
2023-11-06T05:06:14.761Z,521.30
2023-11-06T05:06:47.117Z,522.03
2023-11-06T05:07:19.454Z,521.50
2023-11-06T05:07:51.891Z,520.08
2023-11-06T05:08:24.238Z,522.40
2023-11-06T05:08:56.610Z,519.25
2023-11-06T05:09:29.028Z,518.33
2023-11-06T05:10:01.329Z,518.88
2023-11-06T05:10:33.887Z,522.20
2023-11-06T05:11:06.858Z,519.83
2023-11-06T05:11:39.278Z,519.60
2023-11-06T05:12:11.707Z,521.78
2023-11-06T05:12:44.028Z,518.88
2023-11-06T05:13:16.483Z,525.47
2023-11-06T05:13:52.701Z,517.83
2023-11-06T05:14:25.205Z,519.60
2023-11-06T05:14:57.622Z,519.95
2023-11-06T05:15:29.979Z,522.70
2023-11-06T05:16:02.267Z,524.20
2023-11-06T05:16:34.603Z,522.83
2023-11-06T05:17:07.032Z,522.33
2023-11-06T05:17:39.541Z,521.58
2023-11-06T05:18:11.981Z,522.20
2023-11-06T05:18:44.658Z,523.00
2023-11-06T05:19:16.986Z,523.65
2023-11-06T05:19:49.345Z,522.38
2023-11-06T05:20:21.895Z,523.63
2023-11-06T05:20:54.266Z,523.67
2023-11-06T05:21:27.203Z,523.50
2023-11-06T05:21:59.706Z,524.65
2023-11-06T05:22:32.471Z,521.92
2023-11-06T05:23:04.858Z,523.08
2023-11-06T05:23:38.063Z,520.95
2023-11-06T05:24:10.404Z,521.80
2023-11-06T05:24:42.771Z,523.22
2023-11-06T05:25:15.171Z,522.42
2023-11-06T05:25:47.486Z,521.90
2023-11-06T05:26:19.800Z,521.67
2023-11-06T05:26:52.108Z,525.03
2023-11-06T05:27:24.407Z,520.83
2023-11-06T05:27:56.848Z,524.35
2023-11-06T05:28:29.381Z,525.22
2023-11-06T05:29:01.795Z,524.00
2023-11-06T05:29:34.632Z,524.00
2023-11-06T05:30:07.226Z,523.38
2023-11-06T05:30:39.565Z,527.33
2023-11-06T05:31:12.045Z,526.40
2023-11-06T05:31:44.348Z,532.85
2023-11-06T05:32:16.776Z,531.35
2023-11-06T05:32:49.214Z,534.45
2023-11-06T05:33:21.637Z,530.00
2023-11-06T05:33:54.102Z,526.63
2023-11-06T05:34:27.187Z,530.03
2023-11-06T05:35:01.659Z,529.03
2023-11-06T05:35:34.166Z,529.17
2023-11-06T05:36:07.932Z,523.60
2023-11-06T05:36:41.756Z,523.05
2023-11-06T05:37:14.053Z,521.60
2023-11-06T05:37:49.105Z,522.85
2023-11-06T05:38:21.550Z,524.97
2023-11-06T05:38:53.856Z,522.53
2023-11-06T05:39:26.214Z,524.38
2023-11-06T05:39:58.935Z,524.78
2023-11-06T05:40:31.256Z,526.00
2023-11-06T05:41:03.723Z,523.67
2023-11-06T05:41:36.278Z,522.60
2023-11-06T05:42:08.619Z,526.10
2023-11-06T05:42:41.020Z,526.90
2023-11-06T05:43:13.473Z,530.80
2023-11-06T05:43:45.774Z,526.08
2023-11-06T05:44:19.277Z,523.20
2023-11-06T05:44:51.925Z,528.92
2023-11-06T05:45:24.260Z,526.47
2023-11-06T05:45:58.123Z,526.67
2023-11-06T05:46:30.730Z,522.70
2023-11-06T05:47:03.269Z,527.47
2023-11-06T05:47:35.731Z,526.20
2023-11-06T05:48:08.224Z,523.53
2023-11-06T05:48:40.729Z,526.17
2023-11-06T05:49:13.682Z,525.38
2023-11-06T05:49:46.059Z,523.53
2023-11-06T05:50:18.679Z,526.30
2023-11-06T05:50:51.001Z,527.97
2023-11-06T05:51:23.406Z,528.53
2023-11-06T05:51:55.702Z,523.28
2023-11-06T05:52:30.161Z,524.60
2023-11-06T05:53:06.055Z,522.70
2023-11-06T05:53:39.046Z,524.85
2023-11-06T05:54:11.906Z,529.47
2023-11-06T05:54:44.261Z,532.17
2023-11-06T05:55:16.699Z,530.25
2023-11-06T05:55:49.436Z,528.13
2023-11-06T05:56:22.838Z,527.47
2023-11-06T05:56:56.404Z,526.70
2023-11-06T05:57:28.832Z,525.22
2023-11-06T05:58:02.551Z,525.35
2023-11-06T05:58:34.904Z,524.83
2023-11-06T05:59:07.263Z,524.83
2023-11-06T05:59:39.833Z,525.67
2023-11-06T06:00:16.876Z,527.08
2023-11-06T06:00:49.352Z,523.45
2023-11-06T06:01:22.045Z,525.20
2023-11-06T06:01:54.330Z,525.95
2023-11-06T06:02:26.733Z,525.80
2023-11-06T06:03:02.773Z,523.53
2023-11-06T06:03:35.374Z,527.90
2023-11-06T06:04:07.813Z,526.28
2023-11-06T06:04:40.197Z,526.20
2023-11-06T06:05:13.035Z,527.38
2023-11-06T06:05:45.529Z,524.05
2023-11-06T06:06:18.283Z,523.65
2023-11-06T06:06:52.421Z,525.78
2023-11-06T06:07:24.715Z,525.92
2023-11-06T06:07:57.030Z,525.45
2023-11-06T06:08:29.985Z,522.08
2023-11-06T06:09:02.611Z,521.33
2023-11-06T06:09:35.339Z,523.15
2023-11-06T06:10:08.007Z,523.03
2023-11-06T06:10:41.081Z,526.55
2023-11-06T06:11:13.966Z,526.70
2023-11-06T06:11:47.518Z,526.08
2023-11-06T06:12:19.802Z,525.08
2023-11-06T06:12:52.174Z,522.42
2023-11-06T06:13:24.473Z,525.03
2023-11-06T06:13:56.890Z,523.75
2023-11-06T06:14:29.296Z,521.50
2023-11-06T06:15:02.712Z,521.95
2023-11-06T06:15:36.055Z,520.88
2023-11-06T06:16:08.652Z,474.83
2023-11-06T06:16:41.015Z,460.83
2023-11-06T06:17:13.573Z,454.38
2023-11-06T06:17:45.981Z,459.10
2023-11-06T06:18:18.454Z,456.23
2023-11-06T06:18:51.464Z,454.73
2023-11-06T06:19:25.071Z,454.10
2023-11-06T06:19:57.509Z,454.80
2023-11-06T06:20:30.104Z,451.50
2023-11-06T06:21:02.417Z,455.42
2023-11-06T06:21:35.188Z,455.25
2023-11-06T06:22:07.574Z,449.52
2023-11-06T06:22:40.477Z,448.08
2023-11-06T06:23:12.814Z,448.77
2023-11-06T06:23:45.224Z,448.65
2023-11-06T06:24:18.715Z,448.10
2023-11-06T06:24:51.658Z,426.60
2023-11-06T06:25:24.025Z,414.83
2023-11-06T06:25:56.356Z,413.70
2023-11-06T06:26:30.766Z,413.83
2023-11-06T06:27:03.121Z,414.98
2023-11-06T06:27:36.094Z,414.17
2023-11-06T06:28:08.410Z,413.40
2023-11-06T06:28:40.774Z,412.27
2023-11-06T06:29:13.176Z,414.40
2023-11-06T06:29:46.909Z,413.83
2023-11-06T06:30:19.209Z,413.63
2023-11-06T06:30:51.697Z,413.13
2023-11-06T06:31:24.052Z,411.92
2023-11-06T06:31:56.680Z,413.17
2023-11-06T06:32:29.053Z,414.58
2023-11-06T06:33:01.616Z,412.52
2023-11-06T06:33:34.512Z,411.35
2023-11-06T06:34:06.845Z,413.10
2023-11-06T06:34:42.378Z,413.55
2023-11-06T06:35:15.403Z,414.63
2023-11-06T06:35:47.797Z,413.88
2023-11-06T06:36:20.531Z,413.63
2023-11-06T06:36:52.920Z,411.63
2023-11-06T06:37:25.334Z,417.08
2023-11-06T06:37:57.584Z,413.40
2023-11-06T06:38:30.596Z,415.15
2023-11-06T06:39:06.899Z,418.02
2023-11-06T06:39:39.371Z,421.85
2023-11-06T06:40:12.304Z,417.05
2023-11-06T06:40:44.682Z,419.17
2023-11-06T06:41:17.058Z,420.02
2023-11-06T06:41:49.472Z,416.20
2023-11-06T06:42:22.199Z,416.30
2023-11-06T06:42:54.626Z,418.95
2023-11-06T06:43:26.913Z,420.77
2023-11-06T06:43:59.262Z,428.92
2023-11-06T06:44:31.670Z,430.98
2023-11-06T06:45:06.162Z,446.88
2023-11-06T06:45:38.501Z,469.52
2023-11-06T06:46:11.034Z,483.27
2023-11-06T06:46:43.768Z,481.27
2023-11-06T06:47:16.096Z,482.50
2023-11-06T06:47:48.924Z,480.88
2023-11-06T06:48:21.826Z,481.80
2023-11-06T06:48:54.330Z,481.95
2023-11-06T06:49:27.722Z,480.42
2023-11-06T06:50:00.705Z,482.48
2023-11-06T06:50:33.345Z,481.95